ZBAA/PEK METAR and TAF weather

Enter ICAO airport designator
Station Type Date Time Source
ZBAA METAR 2022/12/08 12:30 UTC NOAA

ZBAA 081230Z VRB01MPS CAVOK M03/M10 Q1025 NOSIG


Station Type Date Time Source
ZBAA Decoded METAR 2022/12/08 12:30 UTC NOAA

Beijing, China (ZBAA) 39-56N 116-17E 55M
Dec 08, 2022 - 07:30 AM EST / 2022.12.08 1230 UTC
Wind: Variable at 2 MPH (2 KT):0
Visibility: greater than 7 mile(s):0
Temperature: 26 F (-3 C)
Dew Point: 14 F (-10 C)
Relative Humidity: 58%
Pressure (altimeter): 30.27 in. Hg (1025 hPa)
ob: ZBAA 081230Z VRB01MPS CAVOK M03/M10 Q1025 NOSIG
cycle: 12

Station Type Date Time Source
ZBAA TAF 2022/12/08 12:03 UTC NOAA

TAF TAF ZBAA 080901Z 0812/0912 36004MPS CAVOK TX08/0907Z TNM07/0821Z

Example: see airport list